Currently 63°F in Riverside (Presidential Park), California, USA
63°F
63°F / 58°F
calm
0.00"
Sunday, May 3, 2026 1:15 PM PDT

Riverside (Presidential Park), California Weather Summary
Last 36 Hours

Temperature Winds Hourly Humidity Dewpoint
Time Report Norm Report Norm Max Gusts Precip. Rpt. Norm Rpt. Norm Pressure
1,2Sun 01:15 PM  63.2°F  75°F  calm  5 mph  9 mph  0.00"  77%  41%  55°F  49°F  N/A
Sun 01:00 PM  62.0°F  75°F  6 mph W  5 mph  10 mph  0.00"  79%  42%  55°F  49°F  N/A
Sun 12:00 PM  59.2°F  72°F  6 mph W  4 mph  11 mph  0.00"  91%  46%  56°F  50°F  N/A
Sun 11:00 AM  59.1°F  70°F  3 mph SW  3 mph  9 mph  0.00"  93%  52%  57°F  50°F  N/A
Sun 10:00 AM  59.2°F  66°F  5 mph W  3 mph  8 mph  0.00"  93%  59%  57°F  51°F  N/A
Sun 09:00 AM  58.6°F  63°F  3 mph NW  2 mph  6 mph  0.00"  92%  67%  56°F  51°F  N/A
Sun 08:00 AM  58.9°F  59°F  4 mph W  2 mph  4 mph  0.00"  91%  74%  56°F  51°F  N/A
3Sun 07:32 AM  58.3°F  58°F  2 mph NW  1 mph  4 mph  ----  91%  76%  56°F  50°F  N/A
Sun 07:00 AM  58.7°F  57°F  2 mph W  1 mph  5 mph  0.00"  90%  77%  56°F  49°F  N/A
Sun 06:00 AM  58.7°F  56°F  3 mph W  1 mph  5 mph  0.00"  89%  76%  55°F  49°F  N/A
Sun 05:00 AM  58.9°F  57°F  1 mph NW  1 mph  6 mph  0.00"  86%  75%  55°F  49°F  N/A
Sun 04:00 AM  58.8°F  57°F  1 mph NW  1 mph  7 mph  0.00"  86%  74%  55°F  49°F  N/A
Sun 03:00 AM  59.0°F  58°F  3 mph W  2 mph  8 mph  0.00"  86%  73%  55°F  49°F  N/A
Sun 02:00 AM  59.3°F  59°F  2 mph W  2 mph  7 mph  0.00"  82%  71%  54°F  49°F  N/A
Sun 01:00 AM  61.5°F  60°F  4 mph W  2 mph  5 mph  0.00"  77%  69%  54°F  49°F  N/A
Sun 12:00 AM  61.9°F  61°F  3 mph NW  2 mph  5 mph  0.00"  75%  67%  53°F  49°F  N/A
Sat 11:00 PM  62.9°F  62°F  2 mph NW  2 mph  9 mph  0.00"  73%  64%  54°F  49°F  N/A
Sat 10:00 PM  64.0°F  64°F  5 mph SW  3 mph  10 mph  0.00"  71%  60%  54°F  49°F  N/A
Sat 09:00 PM  67.0°F  66°F  6 mph W  3 mph  12 mph  0.00"  63%  56%  54°F  49°F  N/A
Sat 08:00 PM  71.7°F  68°F  4 mph W  4 mph  10 mph  0.00"  54%  52%  54°F  49°F  N/A
Sat 07:00 PM  74.7°F  71°F  6 mph W  7 mph  7 mph  0.00"  48%  47%  53°F  49°F  N/A
Sat 06:00 PM  78.0°F  74°F  6 mph W  8 mph  none  0.00"  45%  42%  54°F  48°F  N/A
Sat 05:00 PM  79.0°F  75°F  calm  8 mph  none  0.00"  44%  40%  55°F  48°F  N/A
Sat 04:00 PM  79.5°F  76°F  calm  8 mph  none  0.00"  43%  39%  54°F  48°F  N/A
Sat 03:00 PM  80.0°F  77°F  calm  7 mph  none  0.00"  42%  38%  54°F  49°F  N/A
Sat 02:00 PM  79.2°F  76°F  calm  6 mph  none  0.00"  41%  39%  53°F  49°F  N/A
Sat 01:00 PM  74.5°F  74°F  calm  5 mph  7 mph  0.00"  53%  42%  55°F  49°F  N/A
Sat 12:00 PM  71.1°F  72°F  4 mph SW  4 mph  9 mph  0.00"  62%  46%  57°F  49°F  N/A
Sat 11:00 AM  65.9°F  69°F  4 mph W  4 mph  8 mph  0.00"  74%  52%  57°F  50°F  N/A
Sat 10:00 AM  61.0°F  66°F  1 mph NE  3 mph  5 mph  0.00"  86%  59%  57°F  51°F  N/A
Sat 09:00 AM  59.2°F  63°F  2 mph E  2 mph  4 mph  0.00"  89%  67%  56°F  51°F  N/A
Sat 08:00 AM  59.0°F  59°F  1 mph NW  2 mph  4 mph  0.00"  89%  74%  56°F  51°F  N/A
Sat 07:00 AM  58.4°F  56°F  calm  1 mph  6 mph  0.00"  89%  77%  55°F  49°F  N/A
Sat 06:00 AM  57.2°F  56°F  calm  1 mph  3 mph  0.00"  88%  76%  54°F  48°F  N/A
Sat 05:00 AM  56.6°F  57°F  1 mph SE  1 mph  3 mph  0.00"  85%  75%  52°F  49°F  N/A
Sat 04:00 AM  57.4°F  57°F  calm  1 mph  3 mph  0.00"  84%  74%  53°F  49°F  N/A
Sat 03:00 AM  58.9°F  58°F  calm  2 mph  3 mph  0.00"  83%  73%  54°F  49°F  N/A
Sat 02:00 AM  59.8°F  59°F  1 mph SE  2 mph  3 mph  0.00"  81%  71%  54°F  49°F  N/A

  1. Current weather data. No green row appears if the current weather data is also the high or low for the current day.
  2. High temperature for the current day.
  3. Low temperature for the current day.

The Riverside (Presidential Park), California weather pages are a service of WeatherCurrents.
Copyright ©Sun May 03 13:16:30 PDT 2026  WeatherCurrents. All rights reserved. - Submit questions and comments - Privacy Policy

This page automatically refreshes every 10 minutes.